createdAt,value
2018-03-18T00:00:12.081Z,0
2018-03-18T00:01:22.071Z,0
2018-03-18T00:02:32.063Z,0
2018-03-18T00:03:41.517Z,0
2018-03-18T00:04:51.238Z,0
2018-03-18T00:06:00.696Z,0
2018-03-18T00:07:09.878Z,0
2018-03-18T00:08:19.872Z,0
2018-03-18T00:09:29.857Z,0
2018-03-18T00:10:39.840Z,0
2018-03-18T00:11:49.556Z,0
2018-03-18T00:12:59.543Z,0
2018-03-18T00:14:09.637Z,0
2018-03-18T00:15:19.620Z,0
2018-03-18T00:16:29.608Z,0
2018-03-18T00:17:39.599Z,0
2018-03-18T00:18:49.589Z,0
2018-03-18T00:19:59.574Z,0
2018-03-18T00:21:09.290Z,0
2018-03-18T00:22:18.745Z,0
2018-03-18T00:23:28.468Z,0
2018-03-18T00:24:38.462Z,0
2018-03-18T00:25:48.451Z,0
2018-03-18T00:26:58.438Z,0
2018-03-18T00:28:08.168Z,0
2018-03-18T00:29:18.167Z,0
2018-03-18T00:30:28.157Z,0
2018-03-18T00:31:37.885Z,0
2018-03-18T00:32:47.613Z,0
2018-03-18T00:33:57.616Z,0
2018-03-18T00:35:07.606Z,0
2018-03-18T00:36:17.591Z,0
2018-03-18T00:37:27.307Z,0
2018-03-18T00:38:37.293Z,0
2018-03-18T00:39:47.280Z,0
2018-03-18T00:40:57.272Z,0
2018-03-18T00:42:06.993Z,0
2018-03-18T00:43:16.975Z,0
2018-03-18T00:44:26.749Z,0
2018-03-18T00:45:36.741Z,0
2018-03-18T00:46:46.728Z,0
2018-03-18T00:47:56.719Z,0
2018-03-18T00:49:06.728Z,0
2018-03-18T00:50:16.181Z,0
2018-03-18T00:51:25.899Z,0
2018-03-18T00:52:35.621Z,0
2018-03-18T00:53:45.338Z,0
2018-03-18T00:54:55.327Z,0
2018-03-18T00:56:04.252Z,0
2018-03-18T00:57:13.985Z,0
2018-03-18T00:58:23.970Z,0
2018-03-18T00:59:33.686Z,0
2018-03-18T01:00:43.679Z,0
2018-03-18T01:01:53.665Z,0
2018-03-18T01:03:03.646Z,0
2018-03-18T01:04:13.633Z,0
2018-03-18T01:05:23.703Z,0
2018-03-18T01:06:33.691Z,0
2018-03-18T01:07:43.680Z,0
2018-03-18T01:08:53.722Z,0
2018-03-18T01:10:03.719Z,0
2018-03-18T01:11:13.722Z,0
2018-03-18T01:12:23.441Z,0
2018-03-18T01:13:33.423Z,0
2018-03-18T01:14:43.413Z,0
2018-03-18T01:15:53.401Z,0
2018-03-18T01:17:03.384Z,0
2018-03-18T01:18:13.101Z,0
2018-03-18T01:19:22.827Z,0
2018-03-18T01:20:32.817Z,0
2018-03-18T01:21:42.802Z,0
2018-03-18T01:22:52.797Z,0
2018-03-18T01:24:02.514Z,0
2018-03-18T01:25:12.235Z,0
2018-03-18T01:26:22.225Z,0
2018-03-18T01:27:32.208Z,0
2018-03-18T01:28:42.195Z,0
2018-03-18T01:29:51.961Z,0
2018-03-18T01:31:01.948Z,0
2018-03-18T01:32:11.677Z,0
2018-03-18T01:33:21.401Z,0
2018-03-18T01:34:31.122Z,0
2018-03-18T01:35:41.106Z,0
2018-03-18T01:36:50.821Z,0
2018-03-18T01:38:00.827Z,0
2018-03-18T01:39:10.019Z,0
2018-03-18T01:40:20.052Z,0
2018-03-18T01:41:30.036Z,0
2018-03-18T01:42:40.032Z,0
2018-03-18T01:43:50.021Z,0
2018-03-18T01:45:00.011Z,0
2018-03-18T01:46:10.007Z,0
2018-03-18T01:47:20.096Z,0
2018-03-18T01:48:30.083Z,0
2018-03-18T01:49:40.066Z,0
2018-03-18T01:50:50.057Z,0
2018-03-18T01:52:00.038Z,0
2018-03-18T01:53:09.481Z,0
2018-03-18T01:54:19.492Z,0
2018-03-18T01:55:29.478Z,0
2018-03-18T01:56:38.929Z,0
2018-03-18T01:57:48.381Z,0
2018-03-18T01:58:58.103Z,0
2018-03-18T02:00:07.823Z,0
2018-03-18T02:01:17.816Z,0
2018-03-18T02:02:27.800Z,0
2018-03-18T02:03:37.786Z,0
2018-03-18T02:04:47.504Z,0
2018-03-18T02:05:57.496Z,0
2018-03-18T02:07:07.482Z,0
2018-03-18T02:08:17.457Z,0
2018-03-18T02:09:27.459Z,0
2018-03-18T02:10:37.453Z,0
2018-03-18T02:11:47.438Z,0
2018-03-18T02:12:57.157Z,0
2018-03-18T02:14:07.142Z,0
2018-03-18T02:15:17.127Z,0
2018-03-18T02:16:27.108Z,0
2018-03-18T02:17:37.090Z,0
2018-03-18T02:18:46.812Z,0
2018-03-18T02:19:56.529Z,0
2018-03-18T02:21:06.248Z,0
2018-03-18T02:22:15.974Z,0
2018-03-18T02:23:25.696Z,0
2018-03-18T02:24:35.143Z,0
2018-03-18T02:25:45.124Z,0
2018-03-18T02:26:55.126Z,0
2018-03-18T02:28:04.860Z,0
2018-03-18T02:29:14.847Z,0
2018-03-18T02:30:24.843Z,0
2018-03-18T02:31:34.868Z,0
2018-03-18T02:32:44.858Z,0
2018-03-18T02:33:54.871Z,0
2018-03-18T02:35:04.872Z,0
2018-03-18T02:36:14.875Z,0
2018-03-18T02:37:24.867Z,0
2018-03-18T02:38:34.579Z,0
2018-03-18T02:39:44.579Z,0
2018-03-18T02:40:54.401Z,0
2018-03-18T02:42:04.131Z,0
2018-03-18T02:43:14.128Z,0
2018-03-18T02:44:23.896Z,0
2018-03-18T02:45:33.625Z,0
2018-03-18T02:46:43.099Z,0
2018-03-18T02:47:53.098Z,0
2018-03-18T02:49:02.817Z,0
2018-03-18T02:50:12.276Z,0
2018-03-18T02:51:22.285Z,0
2018-03-18T02:52:32.294Z,0
2018-03-18T02:53:41.758Z,0
2018-03-18T02:54:51.746Z,0
2018-03-18T02:56:01.753Z,0
2018-03-18T02:57:11.561Z,0
2018-03-18T02:58:21.550Z,0
2018-03-18T02:59:31.002Z,0
2018-03-18T03:00:40.729Z,0
2018-03-18T03:01:50.718Z,0
2018-03-18T03:03:00.763Z,0
2018-03-18T03:04:10.226Z,0
2018-03-18T03:05:20.234Z,0
2018-03-18T03:06:30.234Z,0
2018-03-18T03:07:40.223Z,0
2018-03-18T03:08:50.061Z,0
2018-03-18T03:09:59.791Z,0
2018-03-18T03:11:09.517Z,0
2018-03-18T03:12:19.234Z,0
2018-03-18T03:13:29.216Z,0
2018-03-18T03:14:39.209Z,0
2018-03-18T03:15:48.927Z,0
2018-03-18T03:16:58.641Z,0
2018-03-18T03:18:08.622Z,0
2018-03-18T03:19:18.607Z,0
2018-03-18T03:20:28.686Z,0
2018-03-18T03:21:38.129Z,0
2018-03-18T03:22:48.110Z,0
2018-03-18T03:23:58.101Z,0
2018-03-18T03:25:08.098Z,0
2018-03-18T03:26:18.124Z,0
2018-03-18T03:27:28.111Z,0
2018-03-18T03:28:37.830Z,0
2018-03-18T03:29:47.824Z,0
2018-03-18T03:30:57.815Z,0
2018-03-18T03:32:07.571Z,0
2018-03-18T03:33:17.631Z,0
2018-03-18T03:34:27.015Z,0
2018-03-18T03:35:36.997Z,0
2018-03-18T03:36:47.001Z,0
2018-03-18T03:37:57.044Z,0
2018-03-18T03:39:06.762Z,0
2018-03-18T03:40:16.751Z,0
2018-03-18T03:41:26.735Z,0
2018-03-18T03:42:36.459Z,0
2018-03-18T03:43:46.446Z,0
2018-03-18T03:44:56.428Z,0
2018-03-18T03:46:06.160Z,0
2018-03-18T03:47:16.143Z,0
2018-03-18T03:48:25.854Z,0
2018-03-18T03:49:35.568Z,0
2018-03-18T03:50:45.294Z,0
2018-03-18T03:51:55.010Z,0
2018-03-18T03:53:05.000Z,0
2018-03-18T03:54:14.980Z,0
2018-03-18T03:55:24.969Z,0
2018-03-18T03:56:34.948Z,0
2018-03-18T03:57:44.932Z,0
2018-03-18T03:58:54.911Z,0
2018-03-18T04:00:04.926Z,0
2018-03-18T04:03:47.202Z,0
2018-03-18T04:04:57.192Z,0
2018-03-18T04:06:07.181Z,0
2018-03-18T04:07:17.165Z,0
2018-03-18T04:08:26.888Z,0
2018-03-18T04:09:36.874Z,0
2018-03-18T04:10:46.855Z,0
2018-03-18T04:11:56.837Z,0
2018-03-18T04:13:06.816Z,0
2018-03-18T04:14:16.529Z,0
2018-03-18T04:15:26.515Z,0
2018-03-18T04:16:36.503Z,0
2018-03-18T04:17:46.215Z,0
2018-03-18T04:18:55.672Z,0
2018-03-18T04:20:05.661Z,0
2018-03-18T04:21:15.372Z,0
2018-03-18T04:22:25.361Z,0
2018-03-18T04:23:35.343Z,0
2018-03-18T04:24:45.322Z,0
2018-03-18T04:25:55.306Z,0
2018-03-18T04:27:05.296Z,0
2018-03-18T04:28:15.282Z,0
2018-03-18T04:29:25.261Z,0
2018-03-18T04:30:34.973Z,0
2018-03-18T04:31:44.950Z,0
2018-03-18T04:32:54.717Z,0
2018-03-18T04:34:04.489Z,0
2018-03-18T04:35:14.475Z,0
2018-03-18T04:36:24.458Z,0
2018-03-18T04:37:34.445Z,0
2018-03-18T04:38:44.425Z,0
2018-03-18T04:39:54.144Z,0
2018-03-18T04:41:04.124Z,0
2018-03-18T04:42:14.112Z,0
2018-03-18T04:43:24.108Z,0
2018-03-18T04:44:34.096Z,0
2018-03-18T04:45:44.075Z,0
2018-03-18T04:46:53.797Z,0
2018-03-18T04:48:03.827Z,0
2018-03-18T04:49:13.547Z,0
2018-03-18T04:50:23.267Z,0
2018-03-18T04:51:32.999Z,0
2018-03-18T04:52:42.987Z,0
2018-03-18T04:53:52.979Z,0
2018-03-18T04:55:02.697Z,0
2018-03-18T04:56:12.412Z,0
2018-03-18T04:57:22.395Z,0
2018-03-18T04:58:32.381Z,0
2018-03-18T04:59:42.099Z,0
2018-03-18T05:00:52.101Z,0
2018-03-18T05:02:01.915Z,0
2018-03-18T05:03:11.893Z,0
2018-03-18T05:04:21.885Z,0
2018-03-18T05:05:31.873Z,0
2018-03-18T05:06:41.853Z,0
2018-03-18T05:07:51.835Z,0
2018-03-18T05:09:01.820Z,0
2018-03-18T05:10:11.535Z,0
2018-03-18T05:11:21.251Z,0
2018-03-18T05:12:31.247Z,5
2018-03-18T05:13:40.979Z,5
2018-03-18T05:14:50.701Z,5
2018-03-18T05:16:00.426Z,5
2018-03-18T05:17:10.158Z,5
2018-03-18T05:18:19.876Z,5
2018-03-18T05:19:29.957Z,10
2018-03-18T05:20:39.939Z,10
2018-03-18T05:21:49.952Z,10
2018-03-18T05:22:59.949Z,10
2018-03-18T05:24:09.942Z,10
2018-03-18T05:25:19.663Z,15
2018-03-18T05:26:29.653Z,15
2018-03-18T05:27:39.642Z,15
2018-03-18T05:28:49.626Z,20
2018-03-18T05:29:59.616Z,20
2018-03-18T05:31:09.063Z,25
2018-03-18T05:32:18.777Z,25
2018-03-18T05:33:28.771Z,25
2018-03-18T05:34:38.487Z,30
2018-03-18T05:35:48.481Z,30
2018-03-18T05:36:58.470Z,35
2018-03-18T05:38:07.918Z,35
2018-03-18T05:39:17.907Z,40
2018-03-18T05:40:27.625Z,40
2018-03-18T05:41:37.612Z,40
2018-03-18T05:42:47.594Z,45
2018-03-18T05:43:57.573Z,45
2018-03-18T05:45:07.296Z,45
2018-03-18T05:46:17.277Z,50
2018-03-18T05:47:27.263Z,50
2018-03-18T05:48:36.983Z,50
2018-03-18T05:49:46.976Z,50
2018-03-18T05:50:56.967Z,55
2018-03-18T05:52:06.950Z,55
2018-03-18T05:53:16.925Z,60
2018-03-18T05:54:26.908Z,60
2018-03-18T05:55:36.895Z,60
2018-03-18T05:56:46.882Z,65
2018-03-18T05:57:56.860Z,65
2018-03-18T05:59:06.602Z,65
2018-03-18T06:00:16.587Z,65
2018-03-18T06:01:26.596Z,70
2018-03-18T06:02:36.314Z,75
2018-03-18T06:03:46.032Z,75
2018-03-18T06:04:56.071Z,80
2018-03-18T06:06:06.064Z,80
2018-03-18T06:07:15.779Z,85
2018-03-18T06:08:25.489Z,85
2018-03-18T06:09:35.481Z,90
2018-03-18T06:10:45.195Z,90
2018-03-18T06:11:55.228Z,95
2018-03-18T06:13:05.212Z,95
2018-03-18T06:14:15.203Z,100
2018-03-18T06:15:25.193Z,105
2018-03-18T06:16:35.188Z,110
2018-03-18T06:17:45.174Z,115
2018-03-18T06:18:55.168Z,115
2018-03-18T06:20:05.168Z,115
2018-03-18T06:21:15.220Z,120
2018-03-18T06:22:25.221Z,120
2018-03-18T06:23:35.212Z,125
2018-03-18T06:24:44.973Z,125
2018-03-18T06:25:54.695Z,125
2018-03-18T06:27:04.685Z,130
2018-03-18T06:28:14.676Z,135
2018-03-18T06:29:24.689Z,135
2018-03-18T06:30:34.410Z,135
2018-03-18T06:31:44.426Z,140
2018-03-18T06:32:54.422Z,140
2018-03-18T06:34:04.407Z,145
2018-03-18T06:35:14.397Z,145
2018-03-18T06:36:24.376Z,150
2018-03-18T06:37:34.278Z,155
2018-03-18T06:38:44.047Z,155
2018-03-18T06:39:54.026Z,155
2018-03-18T06:41:04.009Z,160
2018-03-18T06:42:13.999Z,160
2018-03-18T06:43:23.713Z,165
2018-03-18T06:44:33.160Z,165
2018-03-18T06:45:42.877Z,165
2018-03-18T06:46:52.333Z,165
2018-03-18T06:48:02.320Z,170
2018-03-18T06:49:11.838Z,170
2018-03-18T06:50:21.568Z,175
2018-03-18T06:51:31.597Z,170
2018-03-18T06:52:41.587Z,170
2018-03-18T06:53:51.036Z,175
2018-03-18T06:55:01.159Z,180
2018-03-18T06:56:10.883Z,180
2018-03-18T06:57:20.888Z,185
2018-03-18T06:58:30.643Z,185
2018-03-18T06:59:40.638Z,185
2018-03-18T07:00:50.361Z,185
2018-03-18T07:02:00.084Z,190
2018-03-18T07:03:10.072Z,190
2018-03-18T07:04:20.062Z,190
2018-03-18T07:05:30.047Z,190
2018-03-18T07:06:39.498Z,190
2018-03-18T07:07:49.483Z,195
2018-03-18T07:08:58.933Z,195
2018-03-18T07:10:08.389Z,195
2018-03-18T07:11:18.373Z,195
2018-03-18T07:12:28.370Z,200
2018-03-18T07:13:38.364Z,200
2018-03-18T07:14:48.081Z,200
2018-03-18T07:15:58.077Z,200
2018-03-18T07:17:08.066Z,205
2018-03-18T07:18:17.785Z,205
2018-03-18T07:19:27.510Z,205
2018-03-18T07:20:37.236Z,210
2018-03-18T07:21:47.319Z,210
2018-03-18T07:22:57.306Z,210
2018-03-18T07:24:07.292Z,210
2018-03-18T07:25:17.010Z,215
2018-03-18T07:26:26.739Z,215
2018-03-18T07:27:36.459Z,215
2018-03-18T07:28:46.177Z,220
2018-03-18T07:29:56.165Z,220
2018-03-18T07:31:05.890Z,220
2018-03-18T07:32:15.605Z,220
2018-03-18T07:33:25.588Z,225
2018-03-18T07:34:35.046Z,225
2018-03-18T07:35:44.766Z,225
2018-03-18T07:36:54.495Z,230
2018-03-18T07:38:04.563Z,230
2018-03-18T07:39:14.508Z,230
2018-03-18T07:40:24.551Z,235
2018-03-18T07:41:34.000Z,235
2018-03-18T07:42:43.715Z,235
2018-03-18T07:43:53.541Z,235
2018-03-18T07:45:03.583Z,235
2018-03-18T07:46:13.297Z,235
2018-03-18T07:47:23.512Z,240
2018-03-18T07:48:33.504Z,240
2018-03-18T07:49:43.491Z,240
2018-03-18T07:50:53.594Z,240
2018-03-18T07:52:03.595Z,240
2018-03-18T07:53:13.316Z,245
2018-03-18T07:54:23.300Z,245
2018-03-18T07:55:33.285Z,245
2018-03-18T07:56:43.016Z,250
2018-03-18T07:57:53.010Z,250
2018-03-18T07:59:02.998Z,250
2018-03-18T08:00:12.451Z,250
2018-03-18T08:01:22.178Z,255
2018-03-18T08:02:31.898Z,255
2018-03-18T08:03:41.614Z,255
2018-03-18T08:04:51.607Z,260
2018-03-18T08:06:01.329Z,260
2018-03-18T08:07:10.781Z,260
2018-03-18T08:08:20.943Z,260
2018-03-18T08:09:30.991Z,265
2018-03-18T08:10:40.983Z,265
2018-03-18T08:11:51.025Z,265
2018-03-18T08:13:01.084Z,270
2018-03-18T08:14:11.371Z,270
2018-03-18T08:15:21.023Z,270
2018-03-18T08:16:31.022Z,275
2018-03-18T08:17:40.736Z,275
2018-03-18T08:18:50.728Z,275
2018-03-18T08:20:00.186Z,285
2018-03-18T08:21:10.188Z,285
2018-03-18T08:22:19.911Z,280
2018-03-18T08:23:29.633Z,285
2018-03-18T08:24:39.626Z,285
2018-03-18T08:25:49.336Z,285
2018-03-18T08:26:59.051Z,295
2018-03-18T08:28:08.780Z,290
2018-03-18T08:29:18.776Z,300
2018-03-18T08:30:28.764Z,295
2018-03-18T08:31:38.750Z,300
2018-03-18T08:32:48.733Z,300
2018-03-18T08:33:58.711Z,300
2018-03-18T08:35:08.163Z,305
2018-03-18T08:36:17.619Z,305
2018-03-18T08:37:27.074Z,310
2018-03-18T08:38:37.063Z,310
2018-03-18T08:39:46.798Z,315
2018-03-18T08:40:56.516Z,315
2018-03-18T08:42:06.508Z,325
2018-03-18T08:43:16.493Z,320
2018-03-18T08:44:26.490Z,325
2018-03-18T08:45:36.487Z,325
2018-03-18T08:46:46.549Z,325
2018-03-18T08:47:56.544Z,330
2018-03-18T08:49:06.537Z,335
2018-03-18T08:50:16.274Z,330
2018-03-18T08:51:25.993Z,335
2018-03-18T08:52:35.993Z,340
2018-03-18T08:53:45.710Z,340
2018-03-18T08:54:56.009Z,340
2018-03-18T08:56:05.458Z,345
2018-03-18T08:57:15.180Z,345
2018-03-18T08:58:25.168Z,350
2018-03-18T08:59:35.153Z,350
2018-03-18T09:00:45.140Z,355
2018-03-18T09:01:55.133Z,355
2018-03-18T09:03:05.129Z,365
2018-03-18T09:04:14.858Z,365
2018-03-18T09:05:24.586Z,365
2018-03-18T09:06:34.311Z,370
2018-03-18T09:07:44.302Z,365
2018-03-18T09:08:54.023Z,370
2018-03-18T09:10:03.214Z,370
2018-03-18T09:11:12.938Z,375
2018-03-18T09:12:22.928Z,380
2018-03-18T09:13:32.378Z,375
2018-03-18T09:14:42.374Z,380
2018-03-18T09:15:52.362Z,380
2018-03-18T09:17:02.368Z,380
2018-03-18T09:18:12.103Z,385
2018-03-18T09:19:22.108Z,385
2018-03-18T09:20:31.825Z,385
2018-03-18T09:21:41.551Z,390
2018-03-18T09:22:51.272Z,390
2018-03-18T09:24:00.726Z,390
2018-03-18T09:25:10.717Z,395
2018-03-18T09:26:20.444Z,395
2018-03-18T09:27:30.492Z,395
2018-03-18T09:28:40.501Z,400
2018-03-18T09:29:50.229Z,400
2018-03-18T09:30:59.958Z,400
2018-03-18T09:32:09.686Z,405
2018-03-18T09:33:19.680Z,405
2018-03-18T09:34:29.407Z,405
2018-03-18T09:35:39.580Z,405
2018-03-18T09:36:49.580Z,405
2018-03-18T09:37:59.570Z,410
2018-03-18T09:39:09.568Z,410
2018-03-18T09:40:19.625Z,415
2018-03-18T09:41:29.425Z,415
2018-03-18T09:42:39.190Z,415
2018-03-18T09:43:49.228Z,420
2018-03-18T09:44:58.956Z,420
2018-03-18T09:46:08.993Z,420
2018-03-18T09:47:18.988Z,425
2018-03-18T09:48:28.450Z,425
2018-03-18T09:49:38.439Z,430
2018-03-18T09:50:48.154Z,430
2018-03-18T09:51:58.142Z,435
2018-03-18T09:53:07.869Z,435
2018-03-18T09:54:17.640Z,435
2018-03-18T09:55:27.679Z,440
2018-03-18T09:56:37.414Z,440
2018-03-18T09:57:47.150Z,445
2018-03-18T09:58:56.881Z,435
2018-03-18T10:00:06.886Z,450
2018-03-18T10:01:16.612Z,455
2018-03-18T10:02:26.337Z,455
2018-03-18T10:03:35.793Z,460
2018-03-18T10:04:45.791Z,460
2018-03-18T10:05:55.253Z,455
2018-03-18T10:07:05.239Z,460
2018-03-18T10:08:15.059Z,460
2018-03-18T10:09:25.073Z,460
2018-03-18T10:10:35.072Z,465
2018-03-18T10:11:45.058Z,460
2018-03-18T10:12:54.790Z,475
2018-03-18T10:14:04.925Z,470
2018-03-18T10:15:14.651Z,475
2018-03-18T10:16:24.454Z,475
2018-03-18T10:17:34.176Z,480
2018-03-18T10:18:44.160Z,480
2018-03-18T10:19:54.164Z,485
2018-03-18T10:21:03.895Z,485
2018-03-18T10:22:13.995Z,485
2018-03-18T10:23:23.768Z,485
2018-03-18T10:24:33.493Z,490
2018-03-18T10:25:43.382Z,490
2018-03-18T10:26:53.378Z,495
2018-03-18T10:28:03.367Z,495
2018-03-18T10:29:12.873Z,500
2018-03-18T10:30:22.878Z,500
2018-03-18T10:31:32.894Z,510
2018-03-18T10:32:42.715Z,510
2018-03-18T10:33:52.509Z,510
2018-03-18T10:35:01.976Z,515
2018-03-18T10:36:11.969Z,515
2018-03-18T10:37:21.971Z,520
2018-03-18T10:38:31.966Z,520
2018-03-18T10:39:42.190Z,525
2018-03-18T10:40:51.931Z,525
2018-03-18T10:42:02.519Z,525
2018-03-18T10:43:12.246Z,530
2018-03-18T10:44:22.238Z,530
2018-03-18T10:45:31.967Z,530
2018-03-18T10:46:41.959Z,535
2018-03-18T10:47:51.948Z,540
2018-03-18T10:49:01.674Z,540
2018-03-18T10:50:11.406Z,535
2018-03-18T10:51:21.138Z,535
2018-03-18T10:52:31.145Z,535
2018-03-18T10:53:41.240Z,540
2018-03-18T10:54:50.971Z,540
2018-03-18T10:56:00.693Z,540
2018-03-18T10:57:10.156Z,545
2018-03-18T10:58:20.147Z,540
2018-03-18T10:59:29.985Z,540
2018-03-18T11:00:39.981Z,545
2018-03-18T11:01:49.985Z,545
2018-03-18T11:02:59.973Z,550
2018-03-18T11:04:09.966Z,550
2018-03-18T11:05:19.692Z,550
2018-03-18T11:06:29.690Z,550
2018-03-18T11:07:39.747Z,555
2018-03-18T11:08:49.805Z,560
2018-03-18T11:09:59.503Z,555
2018-03-18T11:11:09.505Z,570
2018-03-18T11:12:19.238Z,660
2018-03-18T11:13:28.995Z,775
2018-03-18T11:14:38.994Z,805
2018-03-18T11:15:48.991Z,810
2018-03-18T11:16:58.991Z,830
2018-03-18T11:18:08.999Z,845
2018-03-18T11:19:18.467Z,840
2018-03-18T11:20:28.461Z,855
2018-03-18T11:21:38.460Z,905
2018-03-18T11:22:48.456Z,1005
2018-03-18T11:23:58.264Z,1080
2018-03-18T11:25:08.006Z,1065
2018-03-18T11:26:17.739Z,1045
2018-03-18T11:27:27.475Z,975
2018-03-18T11:28:37.225Z,945
2018-03-18T11:29:46.945Z,925
2018-03-18T11:30:56.678Z,935
2018-03-18T11:32:06.195Z,930
2018-03-18T11:33:15.398Z,935
2018-03-18T11:34:25.130Z,935
2018-03-18T11:35:35.138Z,935
2018-03-18T11:36:45.144Z,935
2018-03-18T11:37:55.146Z,930
2018-03-18T11:39:05.153Z,920
2018-03-18T11:40:14.627Z,905
2018-03-18T11:41:24.640Z,935
2018-03-18T11:42:34.428Z,945
2018-03-18T11:43:44.256Z,930
2018-03-18T11:44:54.263Z,935
2018-03-18T11:46:04.004Z,930
2018-03-18T11:47:13.740Z,940
2018-03-18T11:48:23.748Z,940
2018-03-18T11:49:33.281Z,955
2018-03-18T11:50:43.352Z,950
2018-03-18T11:51:53.366Z,945
2018-03-18T11:53:03.377Z,955
2018-03-18T11:54:13.124Z,970
2018-03-18T11:55:22.639Z,970
2018-03-18T11:56:32.650Z,980
2018-03-18T11:57:42.388Z,980
2018-03-18T11:58:52.140Z,990
2018-03-18T12:00:02.241Z,1005
2018-03-18T12:01:12.125Z,1010
2018-03-18T12:02:22.148Z,985
2018-03-18T12:03:32.157Z,990
2018-03-18T12:04:42.175Z,995
2018-03-18T12:05:52.195Z,995
2018-03-18T12:07:01.949Z,1010
2018-03-18T12:08:11.971Z,1015
2018-03-18T12:09:21.711Z,1020
2018-03-18T12:10:31.731Z,1025
2018-03-18T12:11:41.750Z,1020
2018-03-18T12:12:51.832Z,1025
2018-03-18T12:14:01.316Z,1025
2018-03-18T12:15:10.796Z,1040
2018-03-18T12:16:20.814Z,1045
2018-03-18T12:17:30.828Z,1050
2018-03-18T12:18:40.839Z,1040
2018-03-18T12:19:50.855Z,1055
2018-03-18T12:21:00.598Z,1055
2018-03-18T12:22:09.810Z,1060
2018-03-18T12:23:19.825Z,1060
2018-03-18T12:24:29.577Z,1065
2018-03-18T12:25:39.603Z,1070
2018-03-18T12:26:49.350Z,1080
2018-03-18T12:27:59.097Z,1100
2018-03-18T12:29:09.120Z,1110
2018-03-18T12:30:18.870Z,1110
2018-03-18T12:31:28.894Z,1140
2018-03-18T12:32:38.911Z,1160
2018-03-18T12:33:49.004Z,1215
2018-03-18T12:34:58.760Z,1240
2018-03-18T12:36:08.517Z,1270
2018-03-18T12:37:18.531Z,1320
2018-03-18T12:38:28.565Z,1365
2018-03-18T12:39:38.377Z,1475
2018-03-18T12:40:48.143Z,1635
2018-03-18T12:41:58.162Z,3090
2018-03-18T12:43:07.915Z,4250
2018-03-18T12:44:17.663Z,2820
2018-03-18T12:45:27.672Z,2500
2018-03-18T12:46:37.473Z,2320
2018-03-18T12:47:47.548Z,2250
2018-03-18T12:48:57.564Z,2360
2018-03-18T12:50:06.780Z,2305
2018-03-18T12:51:16.266Z,2110
2018-03-18T12:52:26.017Z,1955
2018-03-18T12:53:36.039Z,1950
2018-03-18T12:54:45.907Z,2020
2018-03-18T12:55:55.652Z,1970
2018-03-18T12:57:05.129Z,2080
2018-03-18T12:58:14.883Z,2175
2018-03-18T12:59:24.366Z,2200
2018-03-18T13:00:34.392Z,2150
2018-03-18T13:01:44.412Z,2190
2018-03-18T13:02:54.431Z,2215
2018-03-18T13:04:04.446Z,2235
2018-03-18T13:05:14.195Z,2220
2018-03-18T13:06:24.206Z,2220
2018-03-18T13:07:34.240Z,2200
2018-03-18T13:08:44.262Z,2160
2018-03-18T13:09:54.280Z,2145
2018-03-18T13:11:03.765Z,1825
2018-03-18T13:12:13.797Z,1840
2018-03-18T13:13:23.855Z,2035
2018-03-18T13:14:33.874Z,1990
2018-03-18T13:15:43.903Z,1705
2018-03-18T13:16:54.114Z,1580
2018-03-18T13:18:03.878Z,1540
2018-03-18T13:19:13.628Z,1520
2018-03-18T13:20:23.698Z,1675
2018-03-18T13:21:33.721Z,1320
2018-03-18T13:22:43.577Z,1025
2018-03-18T13:23:53.328Z,1150
2018-03-18T13:25:03.559Z,1215
2018-03-18T13:26:13.310Z,1330
2018-03-18T13:27:23.337Z,1320
2018-03-18T13:28:33.354Z,980
2018-03-18T13:29:43.363Z,990
2018-03-18T13:30:53.107Z,1020
2018-03-18T13:32:03.127Z,1020
2018-03-18T13:33:13.139Z,1005
2018-03-18T13:34:22.889Z,1220
2018-03-18T13:35:32.901Z,1435
2018-03-18T13:36:42.910Z,1110
2018-03-18T13:37:52.924Z,1000
2018-03-18T13:39:02.707Z,985
2018-03-18T13:40:12.285Z,860
2018-03-18T13:41:22.290Z,1000
2018-03-18T13:42:32.029Z,775
2018-03-18T13:43:41.764Z,795
2018-03-18T13:44:51.773Z,1075
2018-03-18T13:46:01.830Z,925
2018-03-18T13:47:11.650Z,710
2018-03-18T13:48:21.710Z,790
2018-03-18T13:49:30.912Z,930
2018-03-18T13:50:40.922Z,955
2018-03-18T13:51:50.931Z,900
2018-03-18T13:53:00.669Z,805
2018-03-18T13:54:10.669Z,870
2018-03-18T13:55:20.426Z,780
2018-03-18T13:56:30.440Z,640
2018-03-18T13:57:40.441Z,675
2018-03-18T13:58:49.923Z,690
2018-03-18T13:59:59.923Z,795
2018-03-18T14:01:09.927Z,980
2018-03-18T14:02:19.940Z,900
2018-03-18T14:03:29.680Z,790
2018-03-18T14:04:39.690Z,800
2018-03-18T14:05:49.782Z,700
2018-03-18T14:06:59.527Z,675
2018-03-18T14:08:08.992Z,685
2018-03-18T14:09:18.990Z,645
2018-03-18T14:10:28.984Z,805
2018-03-18T14:11:38.992Z,810
2018-03-18T14:12:48.728Z,695
2018-03-18T14:13:58.191Z,905
2018-03-18T14:15:07.655Z,1010
2018-03-18T14:16:17.431Z,1345
2018-03-18T14:17:27.170Z,1095
2018-03-18T14:18:37.170Z,870
2018-03-18T14:19:47.208Z,770
2018-03-18T14:20:56.995Z,975
2018-03-18T14:22:06.739Z,1095
2018-03-18T14:23:16.812Z,875
2018-03-18T14:24:26.550Z,780
2018-03-18T14:25:36.580Z,925
2018-03-18T14:26:46.310Z,960
2018-03-18T14:27:56.045Z,1035
2018-03-18T14:29:06.051Z,1130
2018-03-18T14:30:16.055Z,1185
2018-03-18T14:31:25.562Z,1375
2018-03-18T14:32:35.623Z,1165
2018-03-18T14:33:45.625Z,930
2018-03-18T14:34:55.353Z,835
2018-03-18T14:36:05.351Z,875
2018-03-18T14:37:15.096Z,1075
2018-03-18T14:38:25.136Z,1390
2018-03-18T14:39:35.132Z,1685
2018-03-18T14:40:45.153Z,1645
2018-03-18T14:41:55.150Z,1685
2018-03-18T14:43:04.610Z,1770
2018-03-18T14:44:14.337Z,1520
2018-03-18T14:45:24.339Z,1430
2018-03-18T14:46:34.342Z,1605
2018-03-18T14:47:44.093Z,1680
2018-03-18T14:48:54.091Z,1520
2018-03-18T14:50:03.557Z,1475
2018-03-18T14:51:13.296Z,1530
2018-03-18T14:52:23.297Z,1670
2018-03-18T14:53:33.303Z,1810
2018-03-18T14:54:43.369Z,1905
2018-03-18T14:55:52.850Z,1815
2018-03-18T14:57:02.869Z,1810
2018-03-18T14:58:12.350Z,1805
2018-03-18T14:59:22.353Z,1760
2018-03-18T15:00:32.099Z,1725
2018-03-18T15:01:41.713Z,1230
2018-03-18T15:02:51.712Z,1125
2018-03-18T15:04:01.453Z,1645
2018-03-18T15:05:11.194Z,1585
2018-03-18T15:06:20.928Z,1610
2018-03-18T15:07:30.930Z,1595
2018-03-18T15:08:40.947Z,1535
2018-03-18T15:09:50.700Z,1445
2018-03-18T15:11:00.434Z,1380
2018-03-18T15:12:10.169Z,1455
2018-03-18T15:13:19.647Z,1460
2018-03-18T15:14:29.728Z,1485
2018-03-18T15:15:39.459Z,1480
2018-03-18T15:16:49.459Z,1360
2018-03-18T15:17:58.930Z,1420
2018-03-18T15:19:08.963Z,1420
2018-03-18T15:20:18.702Z,1410
2018-03-18T15:21:28.436Z,1345
2018-03-18T15:22:38.443Z,1355
2018-03-18T15:23:48.448Z,1320
2018-03-18T15:24:58.450Z,1220
2018-03-18T15:26:08.456Z,1200
2018-03-18T15:27:18.292Z,1140
2018-03-18T15:28:28.300Z,1200
2018-03-18T15:29:38.343Z,1270
2018-03-18T15:30:48.375Z,1240
2018-03-18T15:31:58.376Z,1360
2018-03-18T15:33:07.846Z,1250
2018-03-18T15:34:17.852Z,1375
2018-03-18T15:35:27.855Z,1320
2018-03-18T15:36:37.867Z,1355
2018-03-18T15:37:47.448Z,1300
2018-03-18T15:38:57.455Z,1115
2018-03-18T15:40:06.926Z,1155
2018-03-18T15:41:16.665Z,1005
2018-03-18T15:42:26.726Z,840
2018-03-18T15:43:36.730Z,815
2018-03-18T15:44:46.737Z,710
2018-03-18T15:45:56.749Z,585
2018-03-18T15:47:06.214Z,585
2018-03-18T15:48:15.957Z,530
2018-03-18T15:49:25.699Z,495
2018-03-18T15:50:35.448Z,445
2018-03-18T15:51:45.458Z,445
2018-03-18T15:52:55.261Z,410
2018-03-18T15:54:04.762Z,390
2018-03-18T15:55:14.794Z,450
2018-03-18T15:56:24.265Z,435
2018-03-18T15:57:34.304Z,460
2018-03-18T15:58:44.304Z,470
2018-03-18T15:59:54.127Z,395
2018-03-18T16:01:03.598Z,355
2018-03-18T16:02:13.338Z,325
2018-03-18T16:03:23.079Z,315
2018-03-18T16:04:32.806Z,290
2018-03-18T16:05:42.804Z,305
2018-03-18T16:06:52.821Z,305
2018-03-18T16:08:02.818Z,335
2018-03-18T16:09:12.559Z,440
2018-03-18T16:10:22.633Z,480
2018-03-18T16:11:32.361Z,440
2018-03-18T16:12:41.569Z,385
2018-03-18T16:13:51.569Z,355
2018-03-18T16:15:01.313Z,325
2018-03-18T16:16:11.050Z,320
2018-03-18T16:17:21.159Z,280
2018-03-18T16:18:31.015Z,255
2018-03-18T16:19:40.758Z,250
2018-03-18T16:20:50.755Z,255
2018-03-18T16:22:00.800Z,275